sensor_id;sensor_type;location;lat;lon;timestamp;pressure;altitude;pressure_sealevel;temperature;humidity
22181;BME280;11256;50.830;12.834;2023-12-14T00:01:38;96412.88;;;4.70;82.43
22181;BME280;11256;50.830;12.834;2023-12-14T00:06:40;96421.75;;;4.71;82.50
22181;BME280;11256;50.830;12.834;2023-12-14T00:11:41;96422.84;;;4.65;82.24
22181;BME280;11256;50.830;12.834;2023-12-14T00:16:41;96430.63;;;4.71;82.03
22181;BME280;11256;50.830;12.834;2023-12-14T00:21:41;96434.66;;;4.64;82.20
22181;BME280;11256;50.830;12.834;2023-12-14T00:26:41;96442.41;;;4.65;82.44
22181;BME280;11256;50.830;12.834;2023-12-14T00:31:42;96448.56;;;4.71;82.65
22181;BME280;11256;50.830;12.834;2023-12-14T00:36:42;96451.25;;;4.71;82.15
22181;BME280;11256;50.830;12.834;2023-12-14T00:41:42;96463.06;;;4.75;81.95
22181;BME280;11256;50.830;12.834;2023-12-14T00:46:43;96466.00;;;4.73;82.28
22181;BME280;11256;50.830;12.834;2023-12-14T00:51:43;96483.44;;;4.71;82.11
22181;BME280;11256;50.830;12.834;2023-12-14T00:56:44;96486.13;;;4.76;82.25
22181;BME280;11256;50.830;12.834;2023-12-14T01:01:44;96479.69;;;4.72;82.40
22181;BME280;11256;50.830;12.834;2023-12-14T01:06:44;96480.50;;;4.72;82.16
22181;BME280;11256;50.830;12.834;2023-12-14T01:11:45;96497.09;;;4.79;82.18
22181;BME280;11256;50.830;12.834;2023-12-14T01:16:45;96500.31;;;4.81;82.24
22181;BME280;11256;50.830;12.834;2023-12-14T01:21:45;96503.81;;;4.82;82.57
22181;BME280;11256;50.830;12.834;2023-12-14T01:26:46;96518.28;;;4.86;82.37
22181;BME280;11256;50.830;12.834;2023-12-14T01:31:46;96512.94;;;4.86;82.06
22181;BME280;11256;50.830;12.834;2023-12-14T01:36:46;96515.59;;;4.86;82.45
22181;BME280;11256;50.830;12.834;2023-12-14T01:41:47;96525.00;;;4.88;83.22
22181;BME280;11256;50.830;12.834;2023-12-14T01:46:49;96536.50;;;4.94;82.47
22181;BME280;11256;50.830;12.834;2023-12-14T01:51:49;96540.81;;;4.90;82.25
22181;BME280;11256;50.830;12.834;2023-12-14T01:56:50;96539.44;;;4.92;82.53
22181;BME280;11256;50.830;12.834;2023-12-14T02:01:55;96560.38;;;4.95;82.85
22181;BME280;11256;50.830;12.834;2023-12-14T02:06:56;96536.81;;;4.87;82.65
22181;BME280;11256;50.830;12.834;2023-12-14T02:11:56;96549.41;;;4.92;82.54
22181;BME280;11256;50.830;12.834;2023-12-14T02:16:57;96557.44;;;4.92;82.82
22181;BME280;11256;50.830;12.834;2023-12-14T02:21:57;96567.91;;;4.98;82.42
22181;BME280;11256;50.830;12.834;2023-12-14T02:26:58;96577.81;;;5.03;82.88
22181;BME280;11256;50.830;12.834;2023-12-14T02:31:58;96581.59;;;5.02;82.93
22181;BME280;11256;50.830;12.834;2023-12-14T02:36:58;96589.88;;;5.05;82.72
22181;BME280;11256;50.830;12.834;2023-12-14T02:41:59;96589.63;;;5.07;82.61
22181;BME280;11256;50.830;12.834;2023-12-14T02:46:59;96592.00;;;5.08;82.77
22181;BME280;11256;50.830;12.834;2023-12-14T02:51:59;96598.19;;;5.09;82.96
22181;BME280;11256;50.830;12.834;2023-12-14T02:57:00;96603.81;;;5.12;82.68
22181;BME280;11256;50.830;12.834;2023-12-14T03:02:00;96600.63;;;5.10;82.86
22181;BME280;11256;50.830;12.834;2023-12-14T03:07:00;96608.09;;;5.18;83.16
22181;BME280;11256;50.830;12.834;2023-12-14T03:12:02;96620.16;;;5.26;83.35
22181;BME280;11256;50.830;12.834;2023-12-14T03:17:03;96619.09;;;5.27;83.11
22181;BME280;11256;50.830;12.834;2023-12-14T03:22:03;96633.84;;;5.34;83.43
22181;BME280;11256;50.830;12.834;2023-12-14T03:27:04;96637.84;;;5.37;83.02
22181;BME280;11256;50.830;12.834;2023-12-14T03:32:04;96630.88;;;5.36;83.16
22181;BME280;11256;50.830;12.834;2023-12-14T03:37:05;96647.75;;;5.46;83.19
22181;BME280;11256;50.830;12.834;2023-12-14T03:42:05;96648.84;;;5.45;83.42
22181;BME280;11256;50.830;12.834;2023-12-14T03:47:05;96672.19;;;5.55;83.55
22181;BME280;11256;50.830;12.834;2023-12-14T03:52:06;96675.41;;;5.57;83.29
22181;BME280;11256;50.830;12.834;2023-12-14T03:57:06;96671.38;;;5.54;83.72
22181;BME280;11256;50.830;12.834;2023-12-14T04:02:06;96684.56;;;5.56;83.26
22181;BME280;11256;50.830;12.834;2023-12-14T04:07:07;96696.59;;;5.63;83.74
22181;BME280;11256;50.830;12.834;2023-12-14T04:12:07;96693.63;;;5.65;84.31
22181;BME280;11256;50.830;12.834;2023-12-14T04:17:07;96703.28;;;5.71;84.19
22181;BME280;11256;50.830;12.834;2023-12-14T04:22:08;96698.47;;;5.68;83.88
22181;BME280;11256;50.830;12.834;2023-12-14T04:27:08;96709.22;;;5.68;83.64
22181;BME280;11256;50.830;12.834;2023-12-14T04:32:09;96720.22;;;5.76;83.22
22181;BME280;11256;50.830;12.834;2023-12-14T04:37:09;96741.47;;;5.83;83.51
22181;BME280;11256;50.830;12.834;2023-12-14T04:42:10;96731.25;;;5.75;83.77
22181;BME280;11256;50.830;12.834;2023-12-14T04:47:10;96724.00;;;5.70;83.62
22181;BME280;11256;50.830;12.834;2023-12-14T04:52:11;96746.28;;;5.86;84.01
22181;BME280;11256;50.830;12.834;2023-12-14T04:57:12;96750.06;;;5.85;83.70
22181;BME280;11256;50.830;12.834;2023-12-14T05:02:12;96763.50;;;5.85;84.23
22181;BME280;11256;50.830;12.834;2023-12-14T05:07:12;96775.59;;;5.87;83.96
22181;BME280;11256;50.830;12.834;2023-12-14T05:12:13;96790.34;;;5.95;85.01
22181;BME280;11256;50.830;12.834;2023-12-14T05:17:13;96792.78;;;5.91;85.12
22181;BME280;11256;50.830;12.834;2023-12-14T05:22:13;96791.44;;;5.89;84.99
22181;BME280;11256;50.830;12.834;2023-12-14T05:27:14;96805.91;;;5.98;84.86
22181;BME280;11256;50.830;12.834;2023-12-14T05:32:14;96822.59;;;6.00;84.95
22181;BME280;11256;50.830;12.834;2023-12-14T05:37:14;96824.50;;;5.94;85.47
22181;BME280;11256;50.830;12.834;2023-12-14T05:42:18;96836.84;;;6.00;84.88
22181;BME280;11256;50.830;12.834;2023-12-14T05:47:18;96859.16;;;6.06;86.24
22181;BME280;11256;50.830;12.834;2023-12-14T05:52:19;96863.44;;;6.07;86.17
22181;BME280;11256;50.830;12.834;2023-12-14T05:57:19;96867.22;;;6.06;85.54
22181;BME280;11256;50.830;12.834;2023-12-14T06:02:19;96872.59;;;6.06;85.97
22181;BME280;11256;50.830;12.834;2023-12-14T06:07:20;96875.56;;;6.09;85.52
22181;BME280;11256;50.830;12.834;2023-12-14T06:12:20;96884.97;;;6.12;85.08
22181;BME280;11256;50.830;12.834;2023-12-14T06:17:20;96899.75;;;6.09;85.41
22181;BME280;11256;50.830;12.834;2023-12-14T06:22:21;96910.75;;;6.18;85.27
22181;BME280;11256;50.830;12.834;2023-12-14T06:27:21;96910.78;;;6.13;85.23
22181;BME280;11256;50.830;12.834;2023-12-14T06:32:26;96916.66;;;6.15;85.13
22181;BME280;11256;50.830;12.834;2023-12-14T06:37:27;96914.28;;;6.08;85.27
22181;BME280;11256;50.830;12.834;2023-12-14T06:42:27;96936.56;;;6.19;84.76
22181;BME280;11256;50.830;12.834;2023-12-14T06:47:28;96927.44;;;6.10;85.47
22181;BME280;11256;50.830;12.834;2023-12-14T06:52:28;96947.88;;;6.16;85.42
22181;BME280;11256;50.830;12.834;2023-12-14T06:57:29;96955.66;;;6.17;84.47
22181;BME280;11256;50.830;12.834;2023-12-14T07:02:30;96960.25;;;6.17;84.82
22181;BME280;11256;50.830;12.834;2023-12-14T07:07:30;96985.00;;;6.19;84.88
22181;BME280;11256;50.830;12.834;2023-12-14T07:12:30;96984.47;;;6.12;85.61
22181;BME280;11256;50.830;12.834;2023-12-14T07:17:30;97008.13;;;6.20;85.36
22181;BME280;11256;50.830;12.834;2023-12-14T07:22:31;97014.56;;;6.24;85.04
22181;BME280;11256;50.830;12.834;2023-12-14T07:27:31;96996.56;;;6.09;85.76
22181;BME280;11256;50.830;12.834;2023-12-14T07:32:31;97029.38;;;6.21;85.57
22181;BME280;11256;50.830;12.834;2023-12-14T07:37:32;97042.56;;;6.28;85.73
22181;BME280;11256;50.830;12.834;2023-12-14T07:42:32;97042.81;;;6.21;85.54
22181;BME280;11256;50.830;12.834;2023-12-14T07:47:32;97067.84;;;6.27;85.60
22181;BME280;11256;50.830;12.834;2023-12-14T07:52:33;97053.84;;;6.20;85.76
22181;BME280;11256;50.830;12.834;2023-12-14T07:57:34;97076.44;;;6.19;85.50
22181;BME280;11256;50.830;12.834;2023-12-14T08:02:34;97079.13;;;6.14;84.99
22181;BME280;11256;50.830;12.834;2023-12-14T08:07:35;97107.38;;;6.21;85.41
22181;BME280;11256;50.830;12.834;2023-12-14T08:12:36;97120.00;;;6.26;85.22
22181;BME280;11256;50.830;12.834;2023-12-14T08:17:37;97097.94;;;6.19;84.97
22181;BME280;11256;50.830;12.834;2023-12-14T08:22:37;97114.91;;;6.19;85.39
22181;BME280;11256;50.830;12.834;2023-12-14T08:27:37;97122.16;;;6.24;85.26
22181;BME280;11256;50.830;12.834;2023-12-14T08:32:38;97126.72;;;6.23;85.02
22181;BME280;11256;50.830;12.834;2023-12-14T08:37:38;97144.25;;;6.21;84.60
22181;BME280;11256;50.830;12.834;2023-12-14T08:42:38;97147.97;;;6.20;84.54
22181;BME280;11256;50.830;12.834;2023-12-14T08:47:39;97150.97;;;6.18;84.77
22181;BME280;11256;50.830;12.834;2023-12-14T08:52:39;97168.44;;;6.21;84.64
22181;BME280;11256;50.830;12.834;2023-12-14T08:57:39;97180.81;;;6.22;84.89
22181;BME280;11256;50.830;12.834;2023-12-14T09:02:40;97190.50;;;6.23;84.69
22181;BME280;11256;50.830;12.834;2023-12-14T09:07:40;97198.03;;;6.21;84.74
22181;BME280;11256;50.830;12.834;2023-12-14T09:12:40;97202.06;;;6.18;84.75
22181;BME280;11256;50.830;12.834;2023-12-14T09:17:41;97209.06;;;6.19;84.59
22181;BME280;11256;50.830;12.834;2023-12-14T09:22:43;97211.19;;;6.17;84.52
22181;BME280;11256;50.830;12.834;2023-12-14T09:27:45;97239.47;;;6.30;84.14
22181;BME280;11256;50.830;12.834;2023-12-14T09:32:46;97244.34;;;6.33;84.30
22181;BME280;11256;50.830;12.834;2023-12-14T09:37:46;97249.97;;;6.26;84.13
22181;BME280;11256;50.830;12.834;2023-12-14T09:42:46;97248.06;;;6.22;84.65
22181;BME280;11256;50.830;12.834;2023-12-14T09:47:47;97259.09;;;6.25;84.26
22181;BME280;11256;50.830;12.834;2023-12-14T09:52:47;97277.69;;;6.32;84.39
22181;BME280;11256;50.830;12.834;2023-12-14T09:57:49;97260.97;;;6.25;84.78
22181;BME280;11256;50.830;12.834;2023-12-14T10:02:49;97270.13;;;6.24;84.06
22181;BME280;11256;50.830;12.834;2023-12-14T10:07:51;97281.97;;;6.23;83.85
22181;BME280;11256;50.830;12.834;2023-12-14T10:12:52;97290.06;;;6.28;83.90
22181;BME280;11256;50.830;12.834;2023-12-14T10:17:54;97281.69;;;6.19;83.85
22181;BME280;11256;50.830;12.834;2023-12-14T10:22:55;97293.81;;;6.27;84.16
22181;BME280;11256;50.830;12.834;2023-12-14T10:27:56;97292.97;;;6.21;84.06
22181;BME280;11256;50.830;12.834;2023-12-14T10:32:57;97313.19;;;6.29;84.35
22181;BME280;11256;50.830;12.834;2023-12-14T10:38:02;97314.25;;;6.23;83.79
22181;BME280;11256;50.830;12.834;2023-12-14T10:43:03;97335.53;;;6.29;83.64
22181;BME280;11256;50.830;12.834;2023-12-14T10:48:04;97335.22;;;6.26;84.05
22181;BME280;11256;50.830;12.834;2023-12-14T10:53:05;97342.75;;;6.24;84.24
22181;BME280;11256;50.830;12.834;2023-12-14T10:58:08;97319.56;;;6.13;83.98
22181;BME280;11256;50.830;12.834;2023-12-14T11:03:13;97347.63;;;6.27;83.80
22181;BME280;11256;50.830;12.834;2023-12-14T11:08:14;97354.06;;;6.21;83.84
22181;BME280;11256;50.830;12.834;2023-12-14T11:13:16;97354.84;;;6.21;83.84
22181;BME280;11256;50.830;12.834;2023-12-14T11:23:27;97364.53;;;6.22;83.48
22181;BME280;11256;50.830;12.834;2023-12-14T11:28:35;97373.94;;;6.20;83.53
22181;BME280;11256;50.830;12.834;2023-12-14T11:33:36;97383.06;;;6.19;83.56
22181;BME280;11256;50.830;12.834;2023-12-14T11:38:37;97389.53;;;6.18;83.46
22181;BME280;11256;50.830;12.834;2023-12-14T11:43:41;97394.06;;;6.17;83.32
22181;BME280;11256;50.830;12.834;2023-12-14T11:48:45;97412.63;;;6.14;83.60
22181;BME280;11256;50.830;12.834;2023-12-14T11:53:51;97413.19;;;6.16;83.26
22181;BME280;11256;50.830;12.834;2023-12-14T11:58:52;97416.97;;;6.20;83.22
22181;BME280;11256;50.830;12.834;2023-12-14T12:03:54;97428.25;;;6.17;83.17
22181;BME280;11256;50.830;12.834;2023-12-14T12:08:54;97441.13;;;6.15;83.23
22181;BME280;11256;50.830;12.834;2023-12-14T12:13:56;97432.53;;;6.13;83.45
22181;BME280;11256;50.830;12.834;2023-12-14T12:18:57;97438.94;;;6.07;82.90
22181;BME280;11256;50.830;12.834;2023-12-14T12:23:57;97441.66;;;6.12;82.91
22181;BME280;11256;50.830;12.834;2023-12-14T12:28:57;97435.72;;;6.05;82.91
22181;BME280;11256;50.830;12.834;2023-12-14T12:33:58;97439.44;;;6.04;82.63
22181;BME280;11256;50.830;12.834;2023-12-14T12:38:58;97449.13;;;6.00;82.64
22181;BME280;11256;50.830;12.834;2023-12-14T12:43:59;97456.09;;;6.01;82.78
22181;BME280;11256;50.830;12.834;2023-12-14T12:49:05;97471.13;;;5.97;82.51
22181;BME280;11256;50.830;12.834;2023-12-14T12:54:05;97477.56;;;5.96;82.73
22181;BME280;11256;50.830;12.834;2023-12-14T12:59:06;97482.41;;;5.94;82.78
22181;BME280;11256;50.830;12.834;2023-12-14T13:04:18;97494.78;;;5.95;82.71
22181;BME280;11256;50.830;12.834;2023-12-14T13:09:19;97489.31;;;5.85;82.47
22181;BME280;11256;50.830;12.834;2023-12-14T13:14:20;97483.75;;;5.70;82.17
22181;BME280;11256;50.830;12.834;2023-12-14T13:19:21;97511.94;;;5.89;81.94
22181;BME280;11256;50.830;12.834;2023-12-14T13:24:23;97523.19;;;5.86;82.22
22181;BME280;11256;50.830;12.834;2023-12-14T13:29:24;97523.19;;;5.86;82.06
22181;BME280;11256;50.830;12.834;2023-12-14T13:34:24;97533.09;;;5.80;82.40
22181;BME280;11256;50.830;12.834;2023-12-14T13:39:25;97530.41;;;5.80;82.46
22181;BME280;11256;50.830;12.834;2023-12-14T13:44:25;97541.63;;;5.77;82.56
22181;BME280;11256;50.830;12.834;2023-12-14T13:49:26;97546.69;;;5.74;82.04
22181;BME280;11256;50.830;12.834;2023-12-14T13:54:26;97562.31;;;5.77;82.41
22181;BME280;11256;50.830;12.834;2023-12-14T13:59:27;97570.59;;;5.70;81.89
22181;BME280;11256;50.830;12.834;2023-12-14T14:04:27;97576.22;;;5.69;82.02
22181;BME280;11256;50.830;12.834;2023-12-14T14:09:27;97587.44;;;5.66;81.95
22181;BME280;11256;50.830;12.834;2023-12-14T14:14:28;97610.09;;;5.70;82.10
22181;BME280;11256;50.830;12.834;2023-12-14T14:19:28;97607.56;;;5.63;82.09
22181;BME280;11256;50.830;12.834;2023-12-14T14:24:29;97614.78;;;5.58;82.33
22181;BME280;11256;50.830;12.834;2023-12-14T14:29:29;97633.59;;;5.58;82.08
22181;BME280;11256;50.830;12.834;2023-12-14T14:34:29;97643.34;;;5.64;81.71
22181;BME280;11256;50.830;12.834;2023-12-14T14:39:30;97661.53;;;5.57;81.96
22181;BME280;11256;50.830;12.834;2023-12-14T14:44:31;97664.16;;;5.52;81.86
22181;BME280;11256;50.830;12.834;2023-12-14T14:49:31;97675.44;;;5.54;81.88
22181;BME280;11256;50.830;12.834;2023-12-14T14:54:31;97689.41;;;5.51;81.79
22181;BME280;11256;50.830;12.834;2023-12-14T14:59:32;97686.06;;;5.44;81.61
22181;BME280;11256;50.830;12.834;2023-12-14T15:04:32;97699.50;;;5.44;81.92
22181;BME280;11256;50.830;12.834;2023-12-14T15:09:32;97699.75;;;5.42;81.99
22181;BME280;11256;50.830;12.834;2023-12-14T15:14:33;97714.50;;;5.40;81.86
22181;BME280;11256;50.830;12.834;2023-12-14T15:19:33;97725.81;;;5.42;82.08
22181;BME280;11256;50.830;12.834;2023-12-14T15:24:33;97746.47;;;5.41;81.71
22181;BME280;11256;50.830;12.834;2023-12-14T15:29:34;97734.28;;;5.34;81.93
22181;BME280;11256;50.830;12.834;2023-12-14T15:34:34;97740.47;;;5.34;81.71
22181;BME280;11256;50.830;12.834;2023-12-14T15:39:35;97749.34;;;5.35;81.73
22181;BME280;11256;50.830;12.834;2023-12-14T15:44:35;97754.66;;;5.30;81.44
22181;BME280;11256;50.830;12.834;2023-12-14T15:49:35;97767.88;;;5.36;81.93
22181;BME280;11256;50.830;12.834;2023-12-14T15:54:36;97777.75;;;5.31;81.27
22181;BME280;11256;50.830;12.834;2023-12-14T15:59:36;97777.44;;;5.27;81.62
22181;BME280;11256;50.830;12.834;2023-12-14T16:04:37;97792.25;;;5.30;81.79
22181;BME280;11256;50.830;12.834;2023-12-14T16:09:37;97788.91;;;5.23;81.95
22181;BME280;11256;50.830;12.834;2023-12-14T16:14:38;97803.38;;;5.22;81.84
22181;BME280;11256;50.830;12.834;2023-12-14T16:19:38;97817.41;;;5.24;81.95
22181;BME280;11256;50.830;12.834;2023-12-14T16:24:39;97812.75;;;5.19;81.44
22181;BME280;11256;50.830;12.834;2023-12-14T16:29:39;97819.91;;;5.14;81.38
22181;BME280;11256;50.830;12.834;2023-12-14T16:34:39;97833.25;;;5.09;81.76
22181;BME280;11256;50.830;12.834;2023-12-14T16:39:40;97847.75;;;5.08;81.40
22181;BME280;11256;50.830;12.834;2023-12-14T16:44:41;97850.09;;;5.04;81.63
22181;BME280;11256;50.830;12.834;2023-12-14T16:49:42;97853.88;;;4.92;80.97
22181;BME280;11256;50.830;12.834;2023-12-14T16:54:42;97871.16;;;4.96;81.53
22181;BME280;11256;50.830;12.834;2023-12-14T16:59:42;97883.41;;;4.92;81.36
22181;BME280;11256;50.830;12.834;2023-12-14T17:04:44;97874.19;;;4.88;81.70
22181;BME280;11256;50.830;12.834;2023-12-14T17:09:44;97873.53;;;4.81;81.34
22181;BME280;11256;50.830;12.834;2023-12-14T17:14:45;97886.84;;;4.76;81.94
22181;BME280;11256;50.830;12.834;2023-12-14T17:19:45;97895.97;;;4.75;81.63
22181;BME280;11256;50.830;12.834;2023-12-14T17:24:45;97906.09;;;4.84;81.75
22181;BME280;11256;50.830;12.834;2023-12-14T17:29:45;97919.06;;;4.76;81.39
22181;BME280;11256;50.830;12.834;2023-12-14T17:34:46;97935.16;;;4.76;81.90
22181;BME280;11256;50.830;12.834;2023-12-14T17:39:46;97934.50;;;4.69;81.68
22181;BME280;11256;50.830;12.834;2023-12-14T17:44:47;97963.19;;;4.80;81.59
22181;BME280;11256;50.830;12.834;2023-12-14T17:49:47;97961.44;;;4.74;81.58
22181;BME280;11256;50.830;12.834;2023-12-14T17:54:47;97965.75;;;4.75;81.73
22181;BME280;11256;50.830;12.834;2023-12-14T17:59:50;97963.88;;;4.75;81.66
22181;BME280;11256;50.830;12.834;2023-12-14T18:04:51;97962.47;;;4.73;81.73
22181;BME280;11256;50.830;12.834;2023-12-14T18:09:51;97977.44;;;4.69;81.57
22181;BME280;11256;50.830;12.834;2023-12-14T18:14:52;97987.13;;;4.70;81.15
22181;BME280;11256;50.830;12.834;2023-12-14T18:19:52;97994.56;;;4.68;81.88
22181;BME280;11256;50.830;12.834;2023-12-14T18:24:55;97998.78;;;4.64;81.80
22181;BME280;11256;50.830;12.834;2023-12-14T18:29:56;97999.25;;;4.61;81.58
22181;BME280;11256;50.830;12.834;2023-12-14T18:34:56;98010.94;;;4.66;81.42
22181;BME280;11256;50.830;12.834;2023-12-14T18:39:56;98015.13;;;4.62;81.79
22181;BME280;11256;50.830;12.834;2023-12-14T18:44:58;98027.03;;;4.66;82.40
22181;BME280;11256;50.830;12.834;2023-12-14T18:49:58;98016.41;;;4.60;81.53
22181;BME280;11256;50.830;12.834;2023-12-14T18:55:03;98038.22;;;4.63;81.78
22181;BME280;11256;50.830;12.834;2023-12-14T19:00:05;98049.28;;;4.67;81.96
22181;BME280;11256;50.830;12.834;2023-12-14T19:05:07;98051.41;;;4.65;81.93
22181;BME280;11256;50.830;12.834;2023-12-14T19:10:07;98063.44;;;4.62;81.89
22181;BME280;11256;50.830;12.834;2023-12-14T19:15:08;98073.94;;;4.64;82.22
22181;BME280;11256;50.830;12.834;2023-12-14T19:20:10;98083.03;;;4.63;82.07
22181;BME280;11256;50.830;12.834;2023-12-14T19:25:11;98091.44;;;4.66;82.09
22181;BME280;11256;50.830;12.834;2023-12-14T19:30:13;98102.97;;;4.67;82.21
22181;BME280;11256;50.830;12.834;2023-12-14T19:35:14;98106.72;;;4.66;81.83
22181;BME280;11256;50.830;12.834;2023-12-14T19:40:16;98101.44;;;4.59;81.99
22181;BME280;11256;50.830;12.834;2023-12-14T19:45:16;98116.75;;;4.59;82.24
22181;BME280;11256;50.830;12.834;2023-12-14T19:50:17;98117.91;;;4.63;82.41
22181;BME280;11256;50.830;12.834;2023-12-14T19:55:17;98127.72;;;4.69;81.97
22181;BME280;11256;50.830;12.834;2023-12-14T20:00:18;98124.56;;;4.60;81.88
22181;BME280;11256;50.830;12.834;2023-12-14T20:05:18;98142.16;;;4.68;82.25
22181;BME280;11256;50.830;12.834;2023-12-14T20:10:18;98158.19;;;4.63;81.88
22181;BME280;11256;50.830;12.834;2023-12-14T20:15:19;98165.75;;;4.66;82.06
22181;BME280;11256;50.830;12.834;2023-12-14T20:20:19;98164.22;;;4.58;82.20
22181;BME280;11256;50.830;12.834;2023-12-14T20:25:20;98182.78;;;4.60;82.24
22181;BME280;11256;50.830;12.834;2023-12-14T20:30:20;98179.50;;;4.58;81.85
22181;BME280;11256;50.830;12.834;2023-12-14T20:35:22;98173.66;;;4.61;82.52
22181;BME280;11256;50.830;12.834;2023-12-14T20:40:22;98181.16;;;4.59;82.07
22181;BME280;11256;50.830;12.834;2023-12-14T20:45:22;98189.91;;;4.66;82.53
22181;BME280;11256;50.830;12.834;2023-12-14T20:50:23;98203.78;;;4.63;82.42
22181;BME280;11256;50.830;12.834;2023-12-14T20:55:23;98207.75;;;4.60;82.46
22181;BME280;11256;50.830;12.834;2023-12-14T21:00:24;98203.28;;;4.54;82.26
22181;BME280;11256;50.830;12.834;2023-12-14T21:05:27;98214.25;;;4.53;82.49
22181;BME280;11256;50.830;12.834;2023-12-14T21:10:27;98218.72;;;4.59;82.34
22181;BME280;11256;50.830;12.834;2023-12-14T21:15:27;98219.16;;;4.56;82.21
22181;BME280;11256;50.830;12.834;2023-12-14T21:20:27;98231.53;;;4.57;82.27
22181;BME280;11256;50.830;12.834;2023-12-14T21:25:29;98229.31;;;4.54;82.33
22181;BME280;11256;50.830;12.834;2023-12-14T21:30:38;98232.44;;;4.51;82.54
22181;BME280;11256;50.830;12.834;2023-12-14T21:35:39;98243.31;;;4.56;82.07
22181;BME280;11256;50.830;12.834;2023-12-14T21:40:39;98241.91;;;4.53;82.33
22181;BME280;11256;50.830;12.834;2023-12-14T21:45:40;98253.38;;;4.60;82.23
22181;BME280;11256;50.830;12.834;2023-12-14T21:50:41;98258.34;;;4.57;82.17
22181;BME280;11256;50.830;12.834;2023-12-14T21:55:41;98267.00;;;4.59;82.47
22181;BME280;11256;50.830;12.834;2023-12-14T22:00:41;98276.13;;;4.58;82.25
22181;BME280;11256;50.830;12.834;2023-12-14T22:05:42;98268.72;;;4.53;82.28
22181;BME280;11256;50.830;12.834;2023-12-14T22:10:42;98285.19;;;4.57;82.35
22181;BME280;11256;50.830;12.834;2023-12-14T22:15:42;98282.38;;;4.52;82.28
22181;BME280;11256;50.830;12.834;2023-12-14T22:20:43;98288.13;;;4.55;82.53
22181;BME280;11256;50.830;12.834;2023-12-14T22:25:43;98298.03;;;4.55;82.11
22181;BME280;11256;50.830;12.834;2023-12-14T22:30:44;98290.88;;;4.49;82.08
22181;BME280;11256;50.830;12.834;2023-12-14T22:35:44;98308.31;;;4.58;82.08
22181;BME280;11256;50.830;12.834;2023-12-14T22:40:45;98315.75;;;4.56;82.07
22181;BME280;11256;50.830;12.834;2023-12-14T22:45:45;98319.34;;;4.50;82.13
22181;BME280;11256;50.830;12.834;2023-12-14T22:50:45;98332.34;;;4.53;82.52
22181;BME280;11256;50.830;12.834;2023-12-14T22:55:46;98333.34;;;4.52;82.09
22181;BME280;11256;50.830;12.834;2023-12-14T23:00:46;98346.75;;;4.52;82.45
22181;BME280;11256;50.830;12.834;2023-12-14T23:05:46;98340.22;;;4.48;82.23
22181;BME280;11256;50.830;12.834;2023-12-14T23:10:47;98343.97;;;4.47;82.24
22181;BME280;11256;50.830;12.834;2023-12-14T23:15:47;98336.78;;;4.41;82.10
22181;BME280;11256;50.830;12.834;2023-12-14T23:20:47;98344.63;;;4.42;82.37
22181;BME280;11256;50.830;12.834;2023-12-14T23:25:48;98347.31;;;4.42;82.22
22181;BME280;11256;50.830;12.834;2023-12-14T23:30:49;98366.91;;;4.43;82.32
22181;BME280;11256;50.830;12.834;2023-12-14T23:35:49;98370.03;;;4.40;82.19
22181;BME280;11256;50.830;12.834;2023-12-14T23:40:50;98376.22;;;4.40;82.34
22181;BME280;11256;50.830;12.834;2023-12-14T23:45:50;98385.97;;;4.35;82.21
22181;BME280;11256;50.830;12.834;2023-12-14T23:50:50;98390.91;;;4.38;81.88
22181;BME280;11256;50.830;12.834;2023-12-14T23:55:51;98394.66;;;4.37;82.68
